LOT209 EPPO-ESSA
Flight info
| Callsign | LOT209 |
|---|---|
| Flight time | 1h 22m |
| Altitude | 38000 |
| Route | XERBI L996 DOSAL DCT GORPI/N0466F370 DCT ARMOD Z228 NILUG |
| Aircraft | BCS3/M-SBDE2E3GIRWXY/LB1 |
Departure
| Time | 2026-04-25 21:18 |
|---|---|
| Airport | Poznań-Ławica Airport (EPPO) |
Arrival
| Time | 2026-04-25 22:40 |
|---|---|
| Airport | Stockholm-Arlanda Airport (ESSA) |
| Time | Latitude | Longitude | Altitude | Speed | Heading |
|---|---|---|---|---|---|
| 2026-04-25 21:08 | 52.41503 | 16.83878 | 298 ft | 0 kts | 2° |
| 2026-04-25 21:15 | 52.41542 | 16.83895 | 300 ft | 11 kts | 11° |
| 2026-04-25 21:16 | 52.41635 | 16.83975 | 300 ft | 13 kts | 32° |
| 2026-04-25 21:16 | 52.41698 | 16.84030 | 299 ft | 30 kts | 18° |
| 2026-04-25 21:16 | 52.41729 | 16.84045 | 298 ft | 0 kts | 17° |
| 2026-04-25 21:17 | 52.41809 | 16.84058 | 299 ft | 17 kts | 336° |
| 2026-04-25 21:17 | 52.41856 | 16.83911 | 302 ft | 24 kts | 288° |
| 2026-04-25 21:17 | 52.42003 | 16.83145 | 303 ft | 116 kts | 287° |
| 2026-04-25 21:18 | 52.42316 | 16.81464 | 525 ft | 185 kts | 287° |
| 2026-04-25 21:18 | 52.42752 | 16.79200 | 1147 ft | 241 kts | 290° |
| 2026-04-25 21:18 | 52.43297 | 16.76574 | 1621 ft | 226 kts | 289° |
| 2026-04-25 21:18 | 52.43743 | 16.74180 | 2032 ft | 226 kts | 288° |
| 2026-04-25 21:19 | 52.44203 | 16.71744 | 2494 ft | 224 kts | 289° |
| 2026-04-25 21:19 | 52.44677 | 16.69304 | 2969 ft | 224 kts | 289° |
| 2026-04-25 21:19 | 52.45145 | 16.66877 | 3438 ft | 224 kts | 289° |
| 2026-04-25 21:19 | 52.45605 | 16.64449 | 3961 ft | 223 kts | 289° |
| 2026-04-25 21:20 | 52.46072 | 16.62009 | 4534 ft | 225 kts | 290° |
| 2026-04-25 21:20 | 52.46386 | 16.60387 | 4895 ft | 225 kts | 290° |
| 2026-04-25 21:20 | 52.47012 | 16.57103 | 5615 ft | 230 kts | 290° |
| 2026-04-25 21:20 | 52.47489 | 16.54586 | 6183 ft | 232 kts | 290° |
| 2026-04-25 21:21 | 52.48003 | 16.52079 | 6715 ft | 232 kts | 295° |
| 2026-04-25 21:21 | 52.48682 | 16.49688 | 7247 ft | 230 kts | 297° |
| 2026-04-25 21:21 | 52.49413 | 16.47358 | 7783 ft | 230 kts | 298° |
| 2026-04-25 21:21 | 52.50190 | 16.45075 | 8339 ft | 229 kts | 302° |
| 2026-04-25 21:22 | 52.51127 | 16.42943 | 8897 ft | 231 kts | 305° |
| 2026-04-25 21:22 | 52.52047 | 16.40787 | 9466 ft | 230 kts | 301° |
| 2026-04-25 21:22 | 52.52901 | 16.38564 | 10024 ft | 232 kts | 301° |
| 2026-04-25 21:22 | 52.53847 | 16.36258 | 10539 ft | 262 kts | 302° |
| 2026-04-25 21:23 | 52.54939 | 16.33656 | 11070 ft | 291 kts | 302° |
| 2026-04-25 21:23 | 52.56098 | 16.30760 | 11608 ft | 310 kts | 301° |
| 2026-04-25 21:23 | 52.57294 | 16.27822 | 12156 ft | 308 kts | 302° |
| 2026-04-25 21:23 | 52.58500 | 16.24901 | 12709 ft | 310 kts | 301° |
| 2026-04-25 21:24 | 52.59694 | 16.21933 | 13276 ft | 311 kts | 301° |
| 2026-04-25 21:24 | 52.60897 | 16.18968 | 13836 ft | 312 kts | 301° |
| 2026-04-25 21:24 | 52.62110 | 16.16000 | 14340 ft | 313 kts | 301° |
| 2026-04-25 21:24 | 52.63298 | 16.13050 | 14855 ft | 314 kts | 301° |
| 2026-04-25 21:25 | 52.64510 | 16.10048 | 15373 ft | 316 kts | 302° |
| 2026-04-25 21:25 | 52.65734 | 16.07038 | 15917 ft | 317 kts | 302° |
| 2026-04-25 21:25 | 52.66952 | 16.04013 | 16462 ft | 318 kts | 302° |
| 2026-04-25 21:25 | 52.68175 | 16.00970 | 17019 ft | 319 kts | 302° |
| 2026-04-25 21:26 | 52.69407 | 15.97923 | 17578 ft | 321 kts | 302° |
| 2026-04-25 21:26 | 52.70688 | 15.94905 | 18158 ft | 324 kts | 309° |
| 2026-04-25 21:26 | 52.72418 | 15.92469 | 18673 ft | 330 kts | 318° |
| 2026-04-25 21:26 | 52.74324 | 15.90345 | 19173 ft | 332 kts | 321° |
| 2026-04-25 21:27 | 52.76272 | 15.88370 | 19681 ft | 333 kts | 323° |
| 2026-04-25 21:27 | 52.78272 | 15.86427 | 20218 ft | 334 kts | 323° |
| 2026-04-25 21:27 | 52.80291 | 15.84515 | 20756 ft | 335 kts | 324° |
| 2026-04-25 21:27 | 52.82343 | 15.82651 | 21296 ft | 339 kts | 327° |
| 2026-04-25 21:28 | 52.84536 | 15.81135 | 21852 ft | 344 kts | 330° |
| 2026-04-25 21:28 | 52.86715 | 15.79550 | 22431 ft | 341 kts | 326° |
| 2026-04-25 21:28 | 52.88858 | 15.77835 | 23001 ft | 344 kts | 328° |
| 2026-04-25 21:28 | 52.91071 | 15.76281 | 23579 ft | 346 kts | 329° |
| 2026-04-25 21:29 | 52.93253 | 15.74608 | 24057 ft | 346 kts | 327° |
| 2026-04-25 21:29 | 52.95420 | 15.72948 | 24559 ft | 351 kts | 329° |
| 2026-04-25 21:29 | 52.97669 | 15.71325 | 25053 ft | 354 kts | 329° |
| 2026-04-25 21:29 | 52.99898 | 15.69580 | 25577 ft | 355 kts | 327° |
| 2026-04-25 21:30 | 53.02170 | 15.67885 | 26096 ft | 361 kts | 331° |
| 2026-04-25 21:30 | 53.04481 | 15.66222 | 26645 ft | 362 kts | 328° |
| 2026-04-25 21:30 | 53.06762 | 15.64393 | 27181 ft | 366 kts | 329° |
| 2026-04-25 21:30 | 53.08311 | 15.63255 | 27557 ft | 370 kts | 330° |
| 2026-04-25 21:31 | 53.11472 | 15.60897 | 28306 ft | 374 kts | 329° |
| 2026-04-25 21:31 | 53.13841 | 15.59052 | 28902 ft | 378 kts | 330° |
| 2026-04-25 21:31 | 53.16263 | 15.57272 | 29479 ft | 382 kts | 330° |
| 2026-04-25 21:31 | 53.18649 | 15.55433 | 30071 ft | 384 kts | 330° |
| 2026-04-25 21:32 | 53.21090 | 15.53563 | 30574 ft | 388 kts | 331° |
| 2026-04-25 21:32 | 53.23556 | 15.51722 | 31101 ft | 390 kts | 331° |
| 2026-04-25 21:32 | 53.26023 | 15.49808 | 31630 ft | 391 kts | 331° |
| 2026-04-25 21:32 | 53.28505 | 15.47921 | 32165 ft | 393 kts | 332° |
| 2026-04-25 21:33 | 53.30997 | 15.46033 | 32707 ft | 394 kts | 331° |
| 2026-04-25 21:33 | 53.33486 | 15.44101 | 33266 ft | 394 kts | 331° |
| 2026-04-25 21:33 | 53.35949 | 15.42235 | 33832 ft | 394 kts | 332° |
| 2026-04-25 21:33 | 53.38610 | 15.40997 | 34359 ft | 404 kts | 346° |
| 2026-04-25 21:34 | 53.41436 | 15.40673 | 34853 ft | 409 kts | 351° |
| 2026-04-25 21:34 | 53.44287 | 15.40613 | 35373 ft | 410 kts | 352° |
| 2026-04-25 21:34 | 53.47141 | 15.40641 | 35883 ft | 410 kts | 353° |
| 2026-04-25 21:34 | 53.49993 | 15.40784 | 36415 ft | 413 kts | 358° |
| 2026-04-25 21:35 | 53.52851 | 15.41426 | 36957 ft | 415 kts | 0° |
| 2026-04-25 21:35 | 53.55694 | 15.41929 | 37484 ft | 408 kts | 355° |
| 2026-04-25 21:35 | 53.58504 | 15.42270 | 37709 ft | 416 kts | 359° |
| 2026-04-25 21:35 | 53.61406 | 15.42909 | 37834 ft | 423 kts | 359° |
| 2026-04-25 21:36 | 53.67366 | 15.43836 | 37907 ft | 441 kts | 0° |
| 2026-04-25 21:36 | 53.73479 | 15.44816 | 37919 ft | 442 kts | 359° |
| 2026-04-25 21:37 | 53.78567 | 15.45762 | 37924 ft | 441 kts | 357° |
| 2026-04-25 21:37 | 53.85692 | 15.46996 | 37918 ft | 443 kts | 358° |
| 2026-04-25 21:38 | 53.91841 | 15.48044 | 37914 ft | 445 kts | 359° |
| 2026-04-25 21:38 | 53.97993 | 15.49038 | 37912 ft | 446 kts | 0° |
| 2026-04-25 21:39 | 54.04158 | 15.50076 | 37912 ft | 445 kts | 359° |
| 2026-04-25 21:39 | 54.10286 | 15.51180 | 37911 ft | 445 kts | 358° |
| 2026-04-25 21:40 | 54.16462 | 15.52278 | 37906 ft | 446 kts | 359° |
| 2026-04-25 21:40 | 54.22642 | 15.53313 | 37911 ft | 447 kts | 0° |
| 2026-04-25 21:41 | 54.28825 | 15.54352 | 37902 ft | 447 kts | 0° |
| 2026-04-25 21:41 | 54.34970 | 15.55450 | 37901 ft | 446 kts | 359° |
| 2026-04-25 21:42 | 54.41159 | 15.56570 | 37902 ft | 447 kts | 359° |
| 2026-04-25 21:42 | 54.47351 | 15.57637 | 37899 ft | 448 kts | 0° |
| 2026-04-25 21:43 | 54.53544 | 15.58691 | 37904 ft | 448 kts | 0° |
| 2026-04-25 21:43 | 54.59727 | 15.60168 | 37913 ft | 455 kts | 9° |
| 2026-04-25 21:44 | 54.65772 | 15.63718 | 37897 ft | 460 kts | 13° |
| 2026-04-25 21:45 | 54.74889 | 15.68172 | 37900 ft | 458 kts | 10° |
| 2026-04-25 21:45 | 54.81016 | 15.71048 | 37903 ft | 458 kts | 11° |
| 2026-04-25 21:46 | 54.87122 | 15.73972 | 37902 ft | 457 kts | 10° |
| 2026-04-25 21:46 | 54.93243 | 15.77002 | 37897 ft | 456 kts | 8° |
| 2026-04-25 21:47 | 54.99364 | 15.80074 | 37900 ft | 457 kts | 8° |
| 2026-04-25 21:47 | 55.05455 | 15.83079 | 37899 ft | 459 kts | 10° |
| 2026-04-25 21:48 | 55.11600 | 15.86044 | 37902 ft | 460 kts | 11° |
| 2026-04-25 21:48 | 55.17753 | 15.89041 | 37901 ft | 460 kts | 10° |
| 2026-04-25 21:49 | 55.23903 | 15.92125 | 37900 ft | 459 kts | 9° |
| 2026-04-25 21:49 | 55.30018 | 15.95225 | 37899 ft | 460 kts | 9° |
| 2026-04-25 21:50 | 55.36178 | 15.98289 | 37893 ft | 461 kts | 11° |
| 2026-04-25 21:50 | 55.42355 | 16.01327 | 37897 ft | 462 kts | 11° |
| 2026-04-25 21:51 | 55.48528 | 16.04417 | 37894 ft | 461 kts | 10° |
| 2026-04-25 21:51 | 55.54655 | 16.07554 | 37899 ft | 461 kts | 9° |
| 2026-04-25 21:52 | 55.60843 | 16.10706 | 37898 ft | 463 kts | 11° |
| 2026-04-25 21:52 | 55.67035 | 16.13810 | 37900 ft | 464 kts | 11° |
| 2026-04-25 21:53 | 55.73231 | 16.16931 | 37897 ft | 464 kts | 11° |
| 2026-04-25 21:53 | 55.79425 | 16.20121 | 37900 ft | 463 kts | 10° |
| 2026-04-25 21:54 | 55.85593 | 16.23319 | 37900 ft | 464 kts | 11° |
| 2026-04-25 21:54 | 55.91807 | 16.26494 | 37900 ft | 465 kts | 12° |
| 2026-04-25 21:55 | 55.98025 | 16.29664 | 37900 ft | 465 kts | 12° |
| 2026-04-25 21:55 | 56.04243 | 16.32893 | 37898 ft | 465 kts | 11° |
| 2026-04-25 21:56 | 56.10458 | 16.36157 | 37907 ft | 465 kts | 11° |
| 2026-04-25 21:56 | 56.16638 | 16.39372 | 37904 ft | 466 kts | 12° |
| 2026-04-25 21:57 | 56.22862 | 16.42589 | 37905 ft | 466 kts | 12° |
| 2026-04-25 21:57 | 56.29087 | 16.45855 | 37901 ft | 466 kts | 11° |
| 2026-04-25 21:58 | 56.35309 | 16.49164 | 37903 ft | 466 kts | 11° |
| 2026-04-25 21:58 | 56.41531 | 16.52456 | 37897 ft | 466 kts | 12° |
| 2026-04-25 21:59 | 56.47764 | 16.55727 | 37895 ft | 467 kts | 12° |
| 2026-04-25 21:59 | 56.53953 | 16.59007 | 37893 ft | 467 kts | 12° |
| 2026-04-25 22:00 | 56.63300 | 16.63998 | 37892 ft | 467 kts | 12° |
| 2026-04-25 22:00 | 56.69537 | 16.67356 | 37891 ft | 467 kts | 12° |
| 2026-04-25 22:01 | 56.75726 | 16.70717 | 37890 ft | 467 kts | 12° |
| 2026-04-25 22:01 | 56.80957 | 16.73514 | 37892 ft | 468 kts | 13° |
| 2026-04-25 22:02 | 56.88209 | 16.77429 | 37894 ft | 468 kts | 13° |
| 2026-04-25 22:02 | 56.94448 | 16.80830 | 37889 ft | 467 kts | 12° |
| 2026-04-25 22:03 | 57.00640 | 16.84244 | 37888 ft | 468 kts | 12° |
| 2026-04-25 22:03 | 57.06884 | 16.87655 | 37883 ft | 469 kts | 13° |
| 2026-04-25 22:04 | 57.13131 | 16.91054 | 37884 ft | 469 kts | 13° |
| 2026-04-25 22:04 | 57.19382 | 16.94503 | 37877 ft | 469 kts | 12° |
| 2026-04-25 22:05 | 57.25628 | 16.97995 | 37862 ft | 469 kts | 12° |
| 2026-04-25 22:05 | 57.28768 | 16.99696 | 37402 ft | 471 kts | 13° |
| 2026-04-25 22:05 | 57.31904 | 17.01481 | 36942 ft | 471 kts | 13° |
| 2026-04-25 22:06 | 57.35035 | 17.03206 | 36498 ft | 469 kts | 12° |
| 2026-04-25 22:06 | 57.38118 | 17.04913 | 36069 ft | 468 kts | 13° |
| 2026-04-25 22:06 | 57.41223 | 17.06685 | 35631 ft | 463 kts | 12° |
| 2026-04-25 22:06 | 57.44259 | 17.08350 | 35211 ft | 447 kts | 12° |
| 2026-04-25 22:07 | 57.47141 | 17.09982 | 34808 ft | 433 kts | 13° |
| 2026-04-25 22:07 | 57.49028 | 17.11059 | 34534 ft | 424 kts | 12° |
| 2026-04-25 22:07 | 57.52733 | 17.13108 | 33979 ft | 407 kts | 12° |
| 2026-04-25 22:07 | 57.55401 | 17.14636 | 33529 ft | 396 kts | 12° |
| 2026-04-25 22:08 | 57.57954 | 17.16075 | 33232 ft | 381 kts | 12° |
| 2026-04-25 22:08 | 57.60460 | 17.17471 | 32806 ft | 372 kts | 12° |
| 2026-04-25 22:08 | 57.62916 | 17.18881 | 32324 ft | 366 kts | 12° |
| 2026-04-25 22:08 | 57.65338 | 17.20250 | 31873 ft | 360 kts | 11° |
| 2026-04-25 22:09 | 57.67718 | 17.21587 | 31436 ft | 355 kts | 12° |
| 2026-04-25 22:09 | 57.70058 | 17.22934 | 30995 ft | 349 kts | 12° |
| 2026-04-25 22:09 | 57.72364 | 17.24242 | 30552 ft | 344 kts | 11° |
| 2026-04-25 22:09 | 57.74639 | 17.25526 | 30130 ft | 339 kts | 11° |
| 2026-04-25 22:10 | 57.76884 | 17.26822 | 29659 ft | 335 kts | 11° |
| 2026-04-25 22:10 | 57.79100 | 17.28084 | 29204 ft | 330 kts | 11° |
| 2026-04-25 22:10 | 57.81247 | 17.29306 | 29014 ft | 325 kts | 11° |
| 2026-04-25 22:10 | 57.83412 | 17.30550 | 28940 ft | 325 kts | 11° |
| 2026-04-25 22:11 | 57.87776 | 17.33045 | 28354 ft | 332 kts | 11° |
| 2026-04-25 22:11 | 57.89901 | 17.34747 | 27872 ft | 340 kts | 30° |
| 2026-04-25 22:11 | 57.91683 | 17.37739 | 27415 ft | 346 kts | 37° |
| 2026-04-25 22:12 | 57.93391 | 17.40914 | 26934 ft | 340 kts | 31° |
| 2026-04-25 22:12 | 57.95394 | 17.42873 | 26528 ft | 318 kts | 7° |
| 2026-04-25 22:12 | 57.97559 | 17.43619 | 26048 ft | 316 kts | 4° |
| 2026-04-25 22:12 | 57.98994 | 17.44038 | 25748 ft | 314 kts | 4° |
| 2026-04-25 22:13 | 58.01839 | 17.44941 | 25158 ft | 311 kts | 5° |
| 2026-04-25 22:13 | 58.03961 | 17.45669 | 24721 ft | 309 kts | 6° |
| 2026-04-25 22:13 | 58.06070 | 17.46423 | 24275 ft | 308 kts | 7° |
| 2026-04-25 22:13 | 58.08135 | 17.47526 | 23854 ft | 309 kts | 13° |
| 2026-04-25 22:14 | 58.10170 | 17.48809 | 23424 ft | 307 kts | 10° |
| 2026-04-25 22:14 | 58.12222 | 17.49812 | 22899 ft | 303 kts | 9° |
| 2026-04-25 22:14 | 58.14247 | 17.50904 | 22377 ft | 303 kts | 12° |
| 2026-04-25 22:14 | 58.16248 | 17.52092 | 21876 ft | 300 kts | 11° |
| 2026-04-25 22:15 | 58.18226 | 17.53105 | 21388 ft | 297 kts | 10° |
| 2026-04-25 22:15 | 58.20208 | 17.54178 | 20904 ft | 296 kts | 12° |
| 2026-04-25 22:15 | 58.22172 | 17.55315 | 20408 ft | 294 kts | 11° |
| 2026-04-25 22:16 | 58.26084 | 17.57410 | 19473 ft | 291 kts | 11° |
| 2026-04-25 22:16 | 58.28020 | 17.58513 | 19019 ft | 289 kts | 11° |
| 2026-04-25 22:16 | 58.29943 | 17.59567 | 18560 ft | 287 kts | 11° |
| 2026-04-25 22:16 | 58.31837 | 17.60587 | 18120 ft | 286 kts | 11° |
| 2026-04-25 22:17 | 58.33742 | 17.61657 | 17602 ft | 285 kts | 11° |
| 2026-04-25 22:17 | 58.35636 | 17.62714 | 17102 ft | 282 kts | 11° |
| 2026-04-25 22:17 | 58.37518 | 17.63737 | 16586 ft | 280 kts | 11° |
| 2026-04-25 22:17 | 58.39385 | 17.64777 | 16090 ft | 279 kts | 11° |
| 2026-04-25 22:18 | 58.41241 | 17.65815 | 15619 ft | 277 kts | 11° |
| 2026-04-25 22:18 | 58.43089 | 17.66833 | 15143 ft | 275 kts | 11° |
| 2026-04-25 22:18 | 58.44922 | 17.67850 | 14667 ft | 274 kts | 11° |
| 2026-04-25 22:18 | 58.46718 | 17.68857 | 14214 ft | 272 kts | 11° |
| 2026-04-25 22:19 | 58.48531 | 17.69863 | 13762 ft | 271 kts | 11° |
| 2026-04-25 22:19 | 58.50334 | 17.70866 | 13248 ft | 270 kts | 11° |
| 2026-04-25 22:19 | 58.52130 | 17.71869 | 12712 ft | 268 kts | 12° |
| 2026-04-25 22:19 | 58.53912 | 17.72870 | 12192 ft | 266 kts | 12° |
| 2026-04-25 22:20 | 58.55680 | 17.73856 | 11679 ft | 263 kts | 12° |
| 2026-04-25 22:20 | 58.57430 | 17.74835 | 11173 ft | 261 kts | 12° |
| 2026-04-25 22:20 | 58.59165 | 17.75811 | 10672 ft | 259 kts | 12° |
| 2026-04-25 22:20 | 58.60883 | 17.76776 | 10230 ft | 255 kts | 12° |
| 2026-04-25 22:21 | 58.62534 | 17.77704 | 10028 ft | 248 kts | 12° |
| 2026-04-25 22:21 | 58.64195 | 17.78637 | 9935 ft | 249 kts | 12° |
| 2026-04-25 22:21 | 58.65865 | 17.79573 | 9884 ft | 250 kts | 12° |
| 2026-04-25 22:21 | 58.67539 | 17.80519 | 9865 ft | 251 kts | 12° |
| 2026-04-25 22:22 | 58.69219 | 17.81472 | 9853 ft | 252 kts | 12° |
| 2026-04-25 22:22 | 58.70903 | 17.82417 | 9850 ft | 252 kts | 12° |
| 2026-04-25 22:22 | 58.72591 | 17.83371 | 9842 ft | 254 kts | 12° |
| 2026-04-25 22:22 | 58.74287 | 17.84334 | 9842 ft | 254 kts | 12° |
| 2026-04-25 22:23 | 58.75959 | 17.85280 | 9838 ft | 254 kts | 12° |
| 2026-04-25 22:23 | 58.77656 | 17.86238 | 9841 ft | 255 kts | 12° |
| 2026-04-25 22:23 | 58.79358 | 17.87211 | 9833 ft | 255 kts | 13° |
| 2026-04-25 22:23 | 58.81047 | 17.88292 | 9835 ft | 256 kts | 15° |
| 2026-04-25 22:24 | 58.82746 | 17.89477 | 9413 ft | 261 kts | 18° |
| 2026-04-25 22:24 | 58.84381 | 17.91013 | 8926 ft | 261 kts | 24° |
| 2026-04-25 22:24 | 58.85967 | 17.92682 | 8432 ft | 258 kts | 22° |
| 2026-04-25 22:24 | 58.87582 | 17.94122 | 7946 ft | 254 kts | 20° |
| 2026-04-25 22:25 | 58.89176 | 17.95572 | 7475 ft | 252 kts | 22° |
| 2026-04-25 22:25 | 58.90709 | 17.97099 | 7014 ft | 250 kts | 22° |
| 2026-04-25 22:25 | 58.92262 | 17.98567 | 6550 ft | 247 kts | 21° |
| 2026-04-25 22:25 | 58.93811 | 17.99980 | 6082 ft | 245 kts | 22° |
| 2026-04-25 22:26 | 58.95332 | 18.01447 | 5605 ft | 244 kts | 22° |
| 2026-04-25 22:26 | 58.96840 | 18.02907 | 5172 ft | 240 kts | 22° |
| 2026-04-25 22:26 | 58.98328 | 18.04293 | 4985 ft | 236 kts | 21° |
| 2026-04-25 22:26 | 58.99808 | 18.05684 | 4898 ft | 237 kts | 22° |
| 2026-04-25 22:27 | 59.01287 | 18.07114 | 4863 ft | 238 kts | 22° |
| 2026-04-25 22:27 | 59.02775 | 18.08536 | 4843 ft | 238 kts | 21° |
| 2026-04-25 22:27 | 59.04192 | 18.09865 | 4835 ft | 240 kts | 21° |
| 2026-04-25 22:27 | 59.05725 | 18.11332 | 4830 ft | 240 kts | 22° |
| 2026-04-25 22:28 | 59.07221 | 18.12774 | 4823 ft | 241 kts | 22° |
| 2026-04-25 22:28 | 59.08792 | 18.13679 | 4840 ft | 233 kts | 353° |
| 2026-04-25 22:28 | 59.10237 | 18.12553 | 4865 ft | 220 kts | 321° |
| 2026-04-25 22:28 | 59.11350 | 18.10689 | 4840 ft | 203 kts | 319° |
| 2026-04-25 22:29 | 59.12397 | 18.08873 | 4832 ft | 202 kts | 319° |
| 2026-04-25 22:29 | 59.13449 | 18.07067 | 4833 ft | 201 kts | 320° |
| 2026-04-25 22:29 | 59.14494 | 18.05320 | 4828 ft | 200 kts | 321° |
| 2026-04-25 22:30 | 59.16676 | 18.01992 | 4824 ft | 200 kts | 327° |
| 2026-04-25 22:30 | 59.17875 | 18.00625 | 4820 ft | 200 kts | 331° |
| 2026-04-25 22:30 | 59.19101 | 17.99361 | 4816 ft | 200 kts | 332° |
| 2026-04-25 22:30 | 59.19921 | 17.98548 | 4819 ft | 200 kts | 333° |
| 2026-04-25 22:31 | 59.21653 | 17.97269 | 4827 ft | 201 kts | 347° |
| 2026-04-25 22:31 | 59.23034 | 17.96830 | 4821 ft | 201 kts | 349° |
| 2026-04-25 22:31 | 59.24418 | 17.96456 | 4815 ft | 201 kts | 350° |
| 2026-04-25 22:31 | 59.25788 | 17.96083 | 4815 ft | 201 kts | 349° |
| 2026-04-25 22:32 | 59.27175 | 17.95680 | 4820 ft | 202 kts | 349° |
| 2026-04-25 22:32 | 59.28557 | 17.95247 | 4817 ft | 201 kts | 348° |
| 2026-04-25 22:32 | 59.29937 | 17.94788 | 4813 ft | 202 kts | 348° |
| 2026-04-25 22:32 | 59.31323 | 17.94309 | 4815 ft | 202 kts | 348° |
| 2026-04-25 22:33 | 59.32697 | 17.93822 | 4815 ft | 201 kts | 347° |
| 2026-04-25 22:33 | 59.34080 | 17.93321 | 4821 ft | 202 kts | 347° |
| 2026-04-25 22:33 | 59.35461 | 17.92823 | 4822 ft | 202 kts | 347° |
| 2026-04-25 22:33 | 59.36822 | 17.92330 | 4833 ft | 197 kts | 347° |
| 2026-04-25 22:34 | 59.38140 | 17.91858 | 4823 ft | 192 kts | 347° |
| 2026-04-25 22:34 | 59.39458 | 17.91381 | 4822 ft | 192 kts | 347° |
| 2026-04-25 22:34 | 59.40773 | 17.90903 | 4820 ft | 193 kts | 347° |
| 2026-04-25 22:34 | 59.42096 | 17.90443 | 4784 ft | 194 kts | 348° |
| 2026-04-25 22:35 | 59.43434 | 17.89977 | 4549 ft | 195 kts | 348° |
| 2026-04-25 22:35 | 59.44750 | 17.89497 | 4266 ft | 184 kts | 347° |
| 2026-04-25 22:35 | 59.45995 | 17.89037 | 3855 ft | 181 kts | 347° |
| 2026-04-25 22:35 | 59.47220 | 17.88575 | 3558 ft | 175 kts | 347° |
| 2026-04-25 22:36 | 59.48391 | 17.88137 | 3437 ft | 173 kts | 348° |
| 2026-04-25 22:36 | 59.49575 | 17.87706 | 3385 ft | 173 kts | 349° |
| 2026-04-25 22:36 | 59.50776 | 17.87424 | 3243 ft | 174 kts | 354° |
| 2026-04-25 22:36 | 59.51932 | 17.87413 | 2977 ft | 164 kts | 0° |
| 2026-04-25 22:37 | 59.53077 | 17.87575 | 2523 ft | 162 kts | 2° |
| 2026-04-25 22:37 | 59.54185 | 17.87824 | 2152 ft | 159 kts | 6° |
| 2026-04-25 22:37 | 59.55254 | 17.88252 | 1923 ft | 156 kts | 9° |
| 2026-04-25 22:37 | 59.56296 | 17.88696 | 1785 ft | 144 kts | 7° |
| 2026-04-25 22:38 | 59.57259 | 17.89048 | 1598 ft | 143 kts | 6° |
| 2026-04-25 22:38 | 59.58239 | 17.89368 | 1390 ft | 144 kts | 6° |
| 2026-04-25 22:38 | 59.59243 | 17.89698 | 1155 ft | 152 kts | 7° |
| 2026-04-25 22:38 | 59.60319 | 17.90073 | 914 ft | 158 kts | 8° |
| 2026-04-25 22:39 | 59.61417 | 17.90472 | 649 ft | 162 kts | 8° |
| 2026-04-25 22:39 | 59.62529 | 17.90862 | 434 ft | 164 kts | 8° |
| 2026-04-25 22:39 | 59.63652 | 17.91262 | 208 ft | 160 kts | 11° |
| 2026-04-25 22:39 | 59.64701 | 17.91683 | 117 ft | 145 kts | 11° |
| 2026-04-25 22:40 | 59.65523 | 17.91988 | 119 ft | 88 kts | 8° |
| 2026-04-25 22:40 | 59.65787 | 17.92251 | 122 ft | 17 kts | 57° |
| 2026-04-25 22:40 | 59.65796 | 17.92299 | 121 ft | 0 kts | 82° |
| 2026-04-25 22:42 | 59.65782 | 17.92383 | 120 ft | 15 kts | 134° |
| 2026-04-25 22:42 | 59.65638 | 17.92378 | 121 ft | 29 kts | 193° |
| 2026-04-25 22:42 | 59.65423 | 17.92298 | 120 ft | 29 kts | 190° |
| 2026-04-25 22:43 | 59.65230 | 17.92228 | 118 ft | 24 kts | 190° |
| 2026-04-25 22:43 | 59.65162 | 17.92203 | 117 ft | 0 kts | 190° |
| 2026-04-25 22:43 | 59.65135 | 17.92301 | 117 ft | 11 kts | 104° |
| 2026-04-25 22:43 | 59.65124 | 17.92456 | 117 ft | 11 kts | 68° |
| 2026-04-25 22:44 | 59.65208 | 17.92521 | 117 ft | 16 kts | 11° |
| 2026-04-25 22:44 | 59.65252 | 17.92558 | 117 ft | 9 kts | 69° |
| 2026-04-25 22:44 | 59.65227 | 17.92606 | 118 ft | 7 kts | 191° |
| 2026-04-25 22:44 | 59.65176 | 17.92623 | 116 ft | 0 kts | 159° |